sensor_id;sensor_type;location;lat;lon;timestamp;P1;durP1;ratioP1;P2;durP2;ratioP2
3193;SDS011;1608;50.860;13.466;2022-11-20T00:01:18;25.90;;;13.20;;
3193;SDS011;1608;50.860;13.466;2022-11-20T00:03:46;26.30;;;14.33;;
3193;SDS011;1608;50.860;13.466;2022-11-20T00:06:14;26.33;;;11.57;;
3193;SDS011;1608;50.860;13.466;2022-11-20T00:08:42;20.97;;;11.20;;
3193;SDS011;1608;50.860;13.466;2022-11-20T00:11:11;16.37;;;10.20;;
3193;SDS011;1608;50.860;13.466;2022-11-20T00:13:38;25.77;;;11.20;;
3193;SDS011;1608;50.860;13.466;2022-11-20T00:16:06;21.07;;;10.47;;
3193;SDS011;1608;50.860;13.466;2022-11-20T00:18:36;15.03;;;7.80;;
3193;SDS011;1608;50.860;13.466;2022-11-20T00:21:03;18.63;;;8.00;;
3193;SDS011;1608;50.860;13.466;2022-11-20T00:23:31;28.40;;;8.37;;
3193;SDS011;1608;50.860;13.466;2022-11-20T00:26:01;17.63;;;8.67;;
3193;SDS011;1608;50.860;13.466;2022-11-20T00:28:29;20.60;;;10.17;;
3193;SDS011;1608;50.860;13.466;2022-11-20T00:31:00;18.53;;;8.10;;
3193;SDS011;1608;50.860;13.466;2022-11-20T00:33:28;19.03;;;7.50;;
3193;SDS011;1608;50.860;13.466;2022-11-20T00:35:59;20.17;;;9.47;;
3193;SDS011;1608;50.860;13.466;2022-11-20T00:38:27;17.63;;;8.50;;
3193;SDS011;1608;50.860;13.466;2022-11-20T00:40:54;20.73;;;10.20;;
3193;SDS011;1608;50.860;13.466;2022-11-20T00:43:22;15.33;;;7.90;;
3193;SDS011;1608;50.860;13.466;2022-11-20T00:45:50;29.43;;;9.43;;
3193;SDS011;1608;50.860;13.466;2022-11-20T00:48:22;17.80;;;7.87;;
3193;SDS011;1608;50.860;13.466;2022-11-20T00:50:49;16.37;;;7.37;;
3193;SDS011;1608;50.860;13.466;2022-11-20T00:53:15;20.07;;;11.13;;
3193;SDS011;1608;50.860;13.466;2022-11-20T00:55:42;19.73;;;7.93;;
3193;SDS011;1608;50.860;13.466;2022-11-20T00:58:09;23.17;;;9.93;;
3193;SDS011;1608;50.860;13.466;2022-11-20T01:00:36;16.23;;;7.73;;
3193;SDS011;1608;50.860;13.466;2022-11-20T01:03:04;13.37;;;7.40;;
3193;SDS011;1608;50.860;13.466;2022-11-20T01:05:33;14.40;;;7.73;;
3193;SDS011;1608;50.860;13.466;2022-11-20T01:08:01;15.83;;;8.37;;
3193;SDS011;1608;50.860;13.466;2022-11-20T01:10:28;15.13;;;8.87;;
3193;SDS011;1608;50.860;13.466;2022-11-20T01:12:55;14.83;;;8.00;;
3193;SDS011;1608;50.860;13.466;2022-11-20T01:15:35;19.03;;;8.17;;
3193;SDS011;1608;50.860;13.466;2022-11-20T01:18:04;13.60;;;7.43;;
3193;SDS011;1608;50.860;13.466;2022-11-20T01:20:33;15.50;;;7.13;;
3193;SDS011;1608;50.860;13.466;2022-11-20T01:23:00;16.23;;;8.30;;
3193;SDS011;1608;50.860;13.466;2022-11-20T01:25:28;18.20;;;7.90;;
3193;SDS011;1608;50.860;13.466;2022-11-20T01:27:55;12.87;;;6.70;;
3193;SDS011;1608;50.860;13.466;2022-11-20T01:30:22;16.23;;;7.43;;
3193;SDS011;1608;50.860;13.466;2022-11-20T01:32:49;16.60;;;8.03;;
3193;SDS011;1608;50.860;13.466;2022-11-20T01:35:17;18.30;;;7.67;;
3193;SDS011;1608;50.860;13.466;2022-11-20T01:37:44;15.83;;;7.77;;
3193;SDS011;1608;50.860;13.466;2022-11-20T01:40:11;17.17;;;7.43;;
3193;SDS011;1608;50.860;13.466;2022-11-20T01:42:38;18.03;;;7.57;;
3193;SDS011;1608;50.860;13.466;2022-11-20T01:45:46;13.30;;;6.50;;
3193;SDS011;1608;50.860;13.466;2022-11-20T01:48:24;16.87;;;6.77;;
3193;SDS011;1608;50.860;13.466;2022-11-20T01:50:56;15.77;;;5.40;;
3193;SDS011;1608;50.860;13.466;2022-11-20T01:53:24;14.63;;;6.80;;
3193;SDS011;1608;50.860;13.466;2022-11-20T01:55:56;14.23;;;6.90;;
3193;SDS011;1608;50.860;13.466;2022-11-20T01:58:27;19.37;;;8.80;;
3193;SDS011;1608;50.860;13.466;2022-11-20T02:00:59;14.93;;;8.10;;
3193;SDS011;1608;50.860;13.466;2022-11-20T02:03:26;16.47;;;7.90;;
3193;SDS011;1608;50.860;13.466;2022-11-20T02:05:55;15.47;;;7.67;;
3193;SDS011;1608;50.860;13.466;2022-11-20T02:08:28;15.60;;;6.37;;
3193;SDS011;1608;50.860;13.466;2022-11-20T02:10:55;11.10;;;5.67;;
3193;SDS011;1608;50.860;13.466;2022-11-20T02:13:22;19.63;;;8.33;;
3193;SDS011;1608;50.860;13.466;2022-11-20T02:16:10;12.53;;;7.00;;
3193;SDS011;1608;50.860;13.466;2022-11-20T02:18:39;11.80;;;7.37;;
3193;SDS011;1608;50.860;13.466;2022-11-20T02:21:09;10.17;;;6.97;;
3193;SDS011;1608;50.860;13.466;2022-11-20T02:23:52;14.90;;;7.27;;
3193;SDS011;1608;50.860;13.466;2022-11-20T02:26:23;16.13;;;7.47;;
3193;SDS011;1608;50.860;13.466;2022-11-20T02:28:52;12.90;;;5.53;;
3193;SDS011;1608;50.860;13.466;2022-11-20T02:31:19;14.50;;;6.43;;
3193;SDS011;1608;50.860;13.466;2022-11-20T02:33:46;7.70;;;5.00;;
3193;SDS011;1608;50.860;13.466;2022-11-20T02:36:14;12.87;;;6.30;;
3193;SDS011;1608;50.860;13.466;2022-11-20T02:38:42;17.13;;;6.10;;
3193;SDS011;1608;50.860;13.466;2022-11-20T02:41:11;11.70;;;6.97;;
3193;SDS011;1608;50.860;13.466;2022-11-20T02:43:38;10.83;;;6.00;;
3193;SDS011;1608;50.860;13.466;2022-11-20T02:46:07;12.23;;;7.40;;
3193;SDS011;1608;50.860;13.466;2022-11-20T02:48:34;12.97;;;5.33;;
3193;SDS011;1608;50.860;13.466;2022-11-20T02:51:01;15.20;;;5.83;;
3193;SDS011;1608;50.860;13.466;2022-11-20T02:53:28;11.87;;;5.73;;
3193;SDS011;1608;50.860;13.466;2022-11-20T02:55:55;10.47;;;5.80;;
3193;SDS011;1608;50.860;13.466;2022-11-20T02:58:24;8.43;;;6.10;;
3193;SDS011;1608;50.860;13.466;2022-11-20T03:00:51;6.77;;;4.83;;
3193;SDS011;1608;50.860;13.466;2022-11-20T03:03:18;13.13;;;5.90;;
3193;SDS011;1608;50.860;13.466;2022-11-20T03:05:45;19.63;;;6.50;;
3193;SDS011;1608;50.860;13.466;2022-11-20T03:08:12;11.60;;;5.20;;
3193;SDS011;1608;50.860;13.466;2022-11-20T03:10:38;12.40;;;6.83;;
3193;SDS011;1608;50.860;13.466;2022-11-20T03:13:05;10.50;;;5.03;;
3193;SDS011;1608;50.860;13.466;2022-11-20T03:15:33;11.97;;;5.33;;
3193;SDS011;1608;50.860;13.466;2022-11-20T03:18:02;8.23;;;4.30;;
3193;SDS011;1608;50.860;13.466;2022-11-20T03:20:29;10.03;;;5.90;;
3193;SDS011;1608;50.860;13.466;2022-11-20T03:22:56;15.70;;;6.70;;
3193;SDS011;1608;50.860;13.466;2022-11-20T03:25:23;9.80;;;5.33;;
3193;SDS011;1608;50.860;13.466;2022-11-20T03:27:50;10.20;;;4.60;;
3193;SDS011;1608;50.860;13.466;2022-11-20T03:30:17;14.47;;;5.90;;
3193;SDS011;1608;50.860;13.466;2022-11-20T03:32:45;13.33;;;6.30;;
3193;SDS011;1608;50.860;13.466;2022-11-20T03:35:12;10.93;;;5.13;;
3193;SDS011;1608;50.860;13.466;2022-11-20T03:37:39;8.70;;;4.80;;
3193;SDS011;1608;50.860;13.466;2022-11-20T03:40:06;15.20;;;5.53;;
3193;SDS011;1608;50.860;13.466;2022-11-20T03:42:33;9.47;;;5.60;;
3193;SDS011;1608;50.860;13.466;2022-11-20T03:45:12;15.87;;;6.87;;
3193;SDS011;1608;50.860;13.466;2022-11-20T03:47:39;9.80;;;5.57;;
3193;SDS011;1608;50.860;13.466;2022-11-20T03:50:08;11.33;;;4.87;;
3193;SDS011;1608;50.860;13.466;2022-11-20T03:52:37;14.57;;;7.00;;
3193;SDS011;1608;50.860;13.466;2022-11-20T03:55:04;14.43;;;5.53;;
3193;SDS011;1608;50.860;13.466;2022-11-20T03:57:32;12.20;;;4.87;;
3193;SDS011;1608;50.860;13.466;2022-11-20T03:59:58;10.27;;;5.40;;
3193;SDS011;1608;50.860;13.466;2022-11-20T04:02:25;9.80;;;4.77;;
3193;SDS011;1608;50.860;13.466;2022-11-20T04:04:52;15.77;;;4.80;;
3193;SDS011;1608;50.860;13.466;2022-11-20T04:07:20;14.83;;;5.13;;
3193;SDS011;1608;50.860;13.466;2022-11-20T04:09:47;5.67;;;5.13;;
3193;SDS011;1608;50.860;13.466;2022-11-20T04:12:14;13.17;;;4.97;;
3193;SDS011;1608;50.860;13.466;2022-11-20T04:14:41;14.00;;;5.10;;
3193;SDS011;1608;50.860;13.466;2022-11-20T04:17:07;12.90;;;4.97;;
3193;SDS011;1608;50.860;13.466;2022-11-20T04:19:34;5.77;;;4.07;;
3193;SDS011;1608;50.860;13.466;2022-11-20T04:22:01;13.17;;;5.53;;
3193;SDS011;1608;50.860;13.466;2022-11-20T04:24:29;16.37;;;5.03;;
3193;SDS011;1608;50.860;13.466;2022-11-20T04:26:56;9.13;;;5.03;;
3193;SDS011;1608;50.860;13.466;2022-11-20T04:29:23;8.40;;;4.93;;
3193;SDS011;1608;50.860;13.466;2022-11-20T04:31:49;10.80;;;4.60;;
3193;SDS011;1608;50.860;13.466;2022-11-20T04:34:16;9.17;;;4.23;;
3193;SDS011;1608;50.860;13.466;2022-11-20T04:36:43;7.40;;;4.53;;
3193;SDS011;1608;50.860;13.466;2022-11-20T04:39:13;12.27;;;5.23;;
3193;SDS011;1608;50.860;13.466;2022-11-20T04:41:42;10.07;;;4.97;;
3193;SDS011;1608;50.860;13.466;2022-11-20T04:44:09;14.47;;;5.53;;
3193;SDS011;1608;50.860;13.466;2022-11-20T04:46:37;15.33;;;7.07;;
3193;SDS011;1608;50.860;13.466;2022-11-20T04:49:04;13.17;;;7.13;;
3193;SDS011;1608;50.860;13.466;2022-11-20T04:51:32;10.97;;;5.20;;
3193;SDS011;1608;50.860;13.466;2022-11-20T04:53:59;17.33;;;6.17;;
3193;SDS011;1608;50.860;13.466;2022-11-20T04:56:26;22.80;;;7.50;;
3193;SDS011;1608;50.860;13.466;2022-11-20T04:58:54;12.53;;;5.73;;
3193;SDS011;1608;50.860;13.466;2022-11-20T05:01:22;10.80;;;6.03;;
3193;SDS011;1608;50.860;13.466;2022-11-20T05:03:50;10.33;;;4.90;;
3193;SDS011;1608;50.860;13.466;2022-11-20T05:06:18;10.37;;;4.77;;
3193;SDS011;1608;50.860;13.466;2022-11-20T05:08:46;7.77;;;4.27;;
3193;SDS011;1608;50.860;13.466;2022-11-20T05:11:13;4.30;;;3.80;;
3193;SDS011;1608;50.860;13.466;2022-11-20T05:13:41;9.27;;;3.93;;
3193;SDS011;1608;50.860;13.466;2022-11-20T05:16:10;9.50;;;3.90;;
3193;SDS011;1608;50.860;13.466;2022-11-20T05:18:39;9.57;;;4.57;;
3193;SDS011;1608;50.860;13.466;2022-11-20T05:21:06;7.47;;;5.03;;
3193;SDS011;1608;50.860;13.466;2022-11-20T05:23:34;5.37;;;3.63;;
3193;SDS011;1608;50.860;13.466;2022-11-20T05:26:02;10.90;;;4.30;;
3193;SDS011;1608;50.860;13.466;2022-11-20T05:28:30;12.20;;;4.33;;
3193;SDS011;1608;50.860;13.466;2022-11-20T05:31:03;7.80;;;4.33;;
3193;SDS011;1608;50.860;13.466;2022-11-20T05:33:33;10.10;;;5.70;;
3193;SDS011;1608;50.860;13.466;2022-11-20T05:36:00;16.83;;;5.83;;
3193;SDS011;1608;50.860;13.466;2022-11-20T05:38:28;8.27;;;4.37;;
3193;SDS011;1608;50.860;13.466;2022-11-20T05:40:55;8.70;;;4.50;;
3193;SDS011;1608;50.860;13.466;2022-11-20T05:43:28;9.40;;;4.13;;
3193;SDS011;1608;50.860;13.466;2022-11-20T05:45:58;8.47;;;4.30;;
3193;SDS011;1608;50.860;13.466;2022-11-20T05:48:25;11.87;;;6.20;;
3193;SDS011;1608;50.860;13.466;2022-11-20T05:50:53;10.20;;;5.00;;
3193;SDS011;1608;50.860;13.466;2022-11-20T05:53:19;10.50;;;5.00;;
3193;SDS011;1608;50.860;13.466;2022-11-20T05:55:46;8.10;;;3.80;;
3193;SDS011;1608;50.860;13.466;2022-11-20T05:58:21;9.07;;;5.23;;
3193;SDS011;1608;50.860;13.466;2022-11-20T06:00:48;17.30;;;8.00;;
3193;SDS011;1608;50.860;13.466;2022-11-20T06:03:15;11.70;;;6.10;;
3193;SDS011;1608;50.860;13.466;2022-11-20T06:05:42;10.30;;;5.93;;
3193;SDS011;1608;50.860;13.466;2022-11-20T06:08:10;12.00;;;6.00;;
3193;SDS011;1608;50.860;13.466;2022-11-20T06:10:37;13.87;;;6.00;;
3193;SDS011;1608;50.860;13.466;2022-11-20T06:13:03;8.23;;;4.60;;
3193;SDS011;1608;50.860;13.466;2022-11-20T06:15:30;12.03;;;6.63;;
3193;SDS011;1608;50.860;13.466;2022-11-20T06:17:57;16.20;;;6.50;;
3193;SDS011;1608;50.860;13.466;2022-11-20T06:20:24;12.93;;;6.67;;
3193;SDS011;1608;50.860;13.466;2022-11-20T06:22:51;12.13;;;6.40;;
3193;SDS011;1608;50.860;13.466;2022-11-20T06:25:19;18.73;;;8.60;;
3193;SDS011;1608;50.860;13.466;2022-11-20T06:27:46;21.60;;;6.73;;
3193;SDS011;1608;50.860;13.466;2022-11-20T06:30:13;8.63;;;5.67;;
3193;SDS011;1608;50.860;13.466;2022-11-20T06:32:40;14.83;;;7.90;;
3193;SDS011;1608;50.860;13.466;2022-11-20T06:35:07;11.27;;;7.10;;
3193;SDS011;1608;50.860;13.466;2022-11-20T06:37:35;17.07;;;7.00;;
3193;SDS011;1608;50.860;13.466;2022-11-20T06:40:02;16.27;;;7.50;;
3193;SDS011;1608;50.860;13.466;2022-11-20T06:42:30;12.47;;;6.50;;
3193;SDS011;1608;50.860;13.466;2022-11-20T06:44:58;17.60;;;8.40;;
3193;SDS011;1608;50.860;13.466;2022-11-20T06:47:25;15.20;;;7.20;;
3193;SDS011;1608;50.860;13.466;2022-11-20T06:49:52;13.63;;;7.70;;
3193;SDS011;1608;50.860;13.466;2022-11-20T06:52:19;18.00;;;9.43;;
3193;SDS011;1608;50.860;13.466;2022-11-20T06:54:45;17.67;;;7.97;;
3193;SDS011;1608;50.860;13.466;2022-11-20T06:57:12;14.80;;;8.60;;
3193;SDS011;1608;50.860;13.466;2022-11-20T06:59:40;12.03;;;5.70;;
3193;SDS011;1608;50.860;13.466;2022-11-20T07:02:09;11.60;;;6.97;;
3193;SDS011;1608;50.860;13.466;2022-11-20T07:04:36;11.80;;;6.80;;
3193;SDS011;1608;50.860;13.466;2022-11-20T07:07:03;12.40;;;7.13;;
3193;SDS011;1608;50.860;13.466;2022-11-20T07:09:31;11.73;;;6.13;;
3193;SDS011;1608;50.860;13.466;2022-11-20T07:11:58;14.77;;;7.63;;
3193;SDS011;1608;50.860;13.466;2022-11-20T07:14:25;11.10;;;7.27;;
3193;SDS011;1608;50.860;13.466;2022-11-20T07:16:53;11.33;;;6.57;;
3193;SDS011;1608;50.860;13.466;2022-11-20T07:19:20;17.57;;;7.10;;
3193;SDS011;1608;50.860;13.466;2022-11-20T07:21:47;16.37;;;7.20;;
3193;SDS011;1608;50.860;13.466;2022-11-20T07:24:13;9.80;;;6.13;;
3193;SDS011;1608;50.860;13.466;2022-11-20T07:26:40;13.60;;;6.33;;
3193;SDS011;1608;50.860;13.466;2022-11-20T07:29:07;20.13;;;8.83;;
3193;SDS011;1608;50.860;13.466;2022-11-20T07:31:34;14.37;;;8.40;;
3193;SDS011;1608;50.860;13.466;2022-11-20T07:34:02;21.30;;;7.63;;
3193;SDS011;1608;50.860;13.466;2022-11-20T07:36:29;15.27;;;6.30;;
3193;SDS011;1608;50.860;13.466;2022-11-20T07:38:56;14.80;;;8.10;;
3193;SDS011;1608;50.860;13.466;2022-11-20T07:41:22;18.40;;;9.43;;
3193;SDS011;1608;50.860;13.466;2022-11-20T07:43:49;18.60;;;10.63;;
3193;SDS011;1608;50.860;13.466;2022-11-20T07:46:16;27.57;;;10.60;;
3193;SDS011;1608;50.860;13.466;2022-11-20T07:48:43;21.37;;;9.60;;
3193;SDS011;1608;50.860;13.466;2022-11-20T07:51:11;22.03;;;13.00;;
3193;SDS011;1608;50.860;13.466;2022-11-20T07:53:38;15.23;;;8.33;;
3193;SDS011;1608;50.860;13.466;2022-11-20T07:56:05;13.63;;;9.07;;
3193;SDS011;1608;50.860;13.466;2022-11-20T07:58:32;15.90;;;7.97;;
3193;SDS011;1608;50.860;13.466;2022-11-20T08:01:02;12.23;;;8.20;;
3193;SDS011;1608;50.860;13.466;2022-11-20T08:03:29;16.83;;;10.63;;
3193;SDS011;1608;50.860;13.466;2022-11-20T08:05:58;14.23;;;7.37;;
3193;SDS011;1608;50.860;13.466;2022-11-20T08:08:27;14.43;;;8.20;;
3193;SDS011;1608;50.860;13.466;2022-11-20T08:10:56;11.27;;;8.43;;
3193;SDS011;1608;50.860;13.466;2022-11-20T08:13:43;13.03;;;7.30;;
3193;SDS011;1608;50.860;13.466;2022-11-20T08:16:27;16.80;;;8.53;;
3193;SDS011;1608;50.860;13.466;2022-11-20T08:18:54;9.30;;;6.33;;
3193;SDS011;1608;50.860;13.466;2022-11-20T08:21:21;11.30;;;6.07;;
3193;SDS011;1608;50.860;13.466;2022-11-20T08:23:50;11.63;;;6.00;;
3193;SDS011;1608;50.860;13.466;2022-11-20T08:26:17;8.63;;;5.07;;
3193;SDS011;1608;50.860;13.466;2022-11-20T08:28:43;9.50;;;5.73;;
3193;SDS011;1608;50.860;13.466;2022-11-20T08:31:10;6.70;;;4.60;;
3193;SDS011;1608;50.860;13.466;2022-11-20T08:33:37;9.70;;;5.97;;
3193;SDS011;1608;50.860;13.466;2022-11-20T08:36:04;8.37;;;5.27;;
3193;SDS011;1608;50.860;13.466;2022-11-20T08:38:32;10.43;;;6.20;;
3193;SDS011;1608;50.860;13.466;2022-11-20T08:41:01;11.53;;;6.60;;
3193;SDS011;1608;50.860;13.466;2022-11-20T08:43:47;9.63;;;7.13;;
3193;SDS011;1608;50.860;13.466;2022-11-20T08:46:14;12.73;;;7.30;;
3193;SDS011;1608;50.860;13.466;2022-11-20T08:48:41;14.30;;;7.80;;
3193;SDS011;1608;50.860;13.466;2022-11-20T08:51:08;7.77;;;5.60;;
3193;SDS011;1608;50.860;13.466;2022-11-20T08:53:35;8.13;;;5.83;;
3193;SDS011;1608;50.860;13.466;2022-11-20T08:56:03;9.67;;;6.40;;
3193;SDS011;1608;50.860;13.466;2022-11-20T08:58:30;13.53;;;6.43;;
3193;SDS011;1608;50.860;13.466;2022-11-20T09:00:57;8.27;;;5.80;;
3193;SDS011;1608;50.860;13.466;2022-11-20T09:03:24;11.67;;;6.63;;
3193;SDS011;1608;50.860;13.466;2022-11-20T09:05:56;10.77;;;6.00;;
3193;SDS011;1608;50.860;13.466;2022-11-20T09:08:23;10.60;;;6.67;;
3193;SDS011;1608;50.860;13.466;2022-11-20T09:10:51;13.23;;;7.43;;
3193;SDS011;1608;50.860;13.466;2022-11-20T09:13:19;14.70;;;6.23;;
3193;SDS011;1608;50.860;13.466;2022-11-20T09:15:46;14.20;;;6.03;;
3193;SDS011;1608;50.860;13.466;2022-11-20T09:18:13;12.23;;;5.40;;
3193;SDS011;1608;50.860;13.466;2022-11-20T09:20:40;14.93;;;6.83;;
3193;SDS011;1608;50.860;13.466;2022-11-20T09:23:07;12.37;;;7.30;;
3193;SDS011;1608;50.860;13.466;2022-11-20T09:25:33;12.27;;;6.40;;
3193;SDS011;1608;50.860;13.466;2022-11-20T09:28:00;16.00;;;7.30;;
3193;SDS011;1608;50.860;13.466;2022-11-20T09:30:28;11.80;;;7.30;;
3193;SDS011;1608;50.860;13.466;2022-11-20T09:32:56;13.37;;;7.23;;
3193;SDS011;1608;50.860;13.466;2022-11-20T09:35:22;14.93;;;6.90;;
3193;SDS011;1608;50.860;13.466;2022-11-20T09:37:49;13.00;;;7.57;;
3193;SDS011;1608;50.860;13.466;2022-11-20T09:40:19;12.43;;;5.57;;
3193;SDS011;1608;50.860;13.466;2022-11-20T09:42:47;13.97;;;7.37;;
3193;SDS011;1608;50.860;13.466;2022-11-20T09:45:23;11.53;;;6.43;;
3193;SDS011;1608;50.860;13.466;2022-11-20T09:47:59;10.17;;;5.43;;
3193;SDS011;1608;50.860;13.466;2022-11-20T09:50:45;8.57;;;4.80;;
3193;SDS011;1608;50.860;13.466;2022-11-20T09:53:20;10.70;;;5.27;;
3193;SDS011;1608;50.860;13.466;2022-11-20T09:55:54;9.50;;;5.83;;
3193;SDS011;1608;50.860;13.466;2022-11-20T09:58:25;12.87;;;6.57;;
3193;SDS011;1608;50.860;13.466;2022-11-20T10:00:59;5.37;;;3.10;;
3193;SDS011;1608;50.860;13.466;2022-11-20T10:03:37;8.57;;;4.80;;
3193;SDS011;1608;50.860;13.466;2022-11-20T10:06:11;8.90;;;5.07;;
3193;SDS011;1608;50.860;13.466;2022-11-20T10:08:43;11.43;;;4.90;;
3193;SDS011;1608;50.860;13.466;2022-11-20T10:11:15;7.43;;;4.07;;
3193;SDS011;1608;50.860;13.466;2022-11-20T10:13:49;10.63;;;4.63;;
3193;SDS011;1608;50.860;13.466;2022-11-20T10:16:29;7.70;;;4.23;;
3193;SDS011;1608;50.860;13.466;2022-11-20T10:19:07;10.00;;;4.97;;
3193;SDS011;1608;50.860;13.466;2022-11-20T10:21:49;8.50;;;5.23;;
3193;SDS011;1608;50.860;13.466;2022-11-20T10:24:26;6.77;;;4.37;;
3193;SDS011;1608;50.860;13.466;2022-11-20T10:27:22;7.47;;;4.93;;
3193;SDS011;1608;50.860;13.466;2022-11-20T10:30:03;9.73;;;5.10;;
3193;SDS011;1608;50.860;13.466;2022-11-20T10:32:37;6.47;;;4.30;;
3193;SDS011;1608;50.860;13.466;2022-11-20T10:35:07;6.77;;;4.03;;
3193;SDS011;1608;50.860;13.466;2022-11-20T10:37:45;9.87;;;4.40;;
3193;SDS011;1608;50.860;13.466;2022-11-20T10:40:18;11.10;;;5.93;;
3193;SDS011;1608;50.860;13.466;2022-11-20T10:42:51;8.57;;;4.83;;
3193;SDS011;1608;50.860;13.466;2022-11-20T10:45:27;7.63;;;4.70;;
3193;SDS011;1608;50.860;13.466;2022-11-20T10:48:08;7.70;;;4.70;;
3193;SDS011;1608;50.860;13.466;2022-11-20T10:50:40;9.90;;;5.43;;
3193;SDS011;1608;50.860;13.466;2022-11-20T10:53:16;9.90;;;6.23;;
3193;SDS011;1608;50.860;13.466;2022-11-20T10:55:56;6.70;;;4.60;;
3193;SDS011;1608;50.860;13.466;2022-11-20T10:58:30;9.77;;;5.23;;
3193;SDS011;1608;50.860;13.466;2022-11-20T11:01:04;15.43;;;6.90;;
3193;SDS011;1608;50.860;13.466;2022-11-20T11:03:32;12.80;;;5.53;;
3193;SDS011;1608;50.860;13.466;2022-11-20T11:06:02;9.77;;;6.77;;
3193;SDS011;1608;50.860;13.466;2022-11-20T11:08:35;15.40;;;6.33;;
3193;SDS011;1608;50.860;13.466;2022-11-20T11:11:09;14.53;;;7.37;;
3193;SDS011;1608;50.860;13.466;2022-11-20T11:13:46;13.57;;;7.80;;
3193;SDS011;1608;50.860;13.466;2022-11-20T11:16:17;12.00;;;8.97;;
3193;SDS011;1608;50.860;13.466;2022-11-20T11:18:48;16.40;;;8.80;;
3193;SDS011;1608;50.860;13.466;2022-11-20T11:21:21;13.57;;;9.97;;
3193;SDS011;1608;50.860;13.466;2022-11-20T11:23:57;14.90;;;6.73;;
3193;SDS011;1608;50.860;13.466;2022-11-20T11:26:25;15.33;;;8.47;;
3193;SDS011;1608;50.860;13.466;2022-11-20T11:28:53;16.40;;;8.93;;
3193;SDS011;1608;50.860;13.466;2022-11-20T11:31:22;14.80;;;8.00;;
3193;SDS011;1608;50.860;13.466;2022-11-20T11:33:51;19.33;;;9.53;;
3193;SDS011;1608;50.860;13.466;2022-11-20T11:36:19;16.30;;;8.07;;
3193;SDS011;1608;50.860;13.466;2022-11-20T11:38:50;17.30;;;9.73;;
3193;SDS011;1608;50.860;13.466;2022-11-20T11:41:20;17.77;;;10.70;;
3193;SDS011;1608;50.860;13.466;2022-11-20T11:43:52;22.50;;;11.70;;
3193;SDS011;1608;50.860;13.466;2022-11-20T11:46:37;19.90;;;9.27;;
3193;SDS011;1608;50.860;13.466;2022-11-20T11:49:16;26.50;;;11.23;;
3193;SDS011;1608;50.860;13.466;2022-11-20T11:51:51;24.83;;;11.20;;
3193;SDS011;1608;50.860;13.466;2022-11-20T11:54:27;22.60;;;9.70;;
3193;SDS011;1608;50.860;13.466;2022-11-20T11:56:58;20.90;;;12.23;;
3193;SDS011;1608;50.860;13.466;2022-11-20T11:59:33;24.90;;;13.47;;
3193;SDS011;1608;50.860;13.466;2022-11-20T12:02:13;25.80;;;12.47;;
3193;SDS011;1608;50.860;13.466;2022-11-20T12:04:50;25.27;;;12.40;;
3193;SDS011;1608;50.860;13.466;2022-11-20T12:07:22;24.67;;;12.10;;
3193;SDS011;1608;50.860;13.466;2022-11-20T12:09:58;25.40;;;12.00;;
3193;SDS011;1608;50.860;13.466;2022-11-20T12:12:29;20.57;;;11.70;;
3193;SDS011;1608;50.860;13.466;2022-11-20T12:15:00;27.10;;;13.30;;
3193;SDS011;1608;50.860;13.466;2022-11-20T12:17:27;26.33;;;12.27;;
3193;SDS011;1608;50.860;13.466;2022-11-20T12:19:55;18.40;;;10.47;;
3193;SDS011;1608;50.860;13.466;2022-11-20T12:22:26;26.00;;;12.13;;
3193;SDS011;1608;50.860;13.466;2022-11-20T12:25:00;17.50;;;9.00;;
3193;SDS011;1608;50.860;13.466;2022-11-20T12:27:42;28.03;;;12.27;;
3193;SDS011;1608;50.860;13.466;2022-11-20T12:30:21;31.00;;;13.67;;
3193;SDS011;1608;50.860;13.466;2022-11-20T12:35:42;28.23;;;11.93;;
3193;SDS011;1608;50.860;13.466;2022-11-20T12:38:26;37.77;;;16.73;;
3193;SDS011;1608;50.860;13.466;2022-11-20T12:41:06;23.90;;;10.40;;
3193;SDS011;1608;50.860;13.466;2022-11-20T12:44:04;34.00;;;13.83;;
3193;SDS011;1608;50.860;13.466;2022-11-20T12:46:59;26.27;;;13.23;;
3193;SDS011;1608;50.860;13.466;2022-11-20T12:49:40;27.47;;;11.97;;
3193;SDS011;1608;50.860;13.466;2022-11-20T12:52:18;23.80;;;12.00;;
3193;SDS011;1608;50.860;13.466;2022-11-20T12:55:13;26.17;;;12.90;;
3193;SDS011;1608;50.860;13.466;2022-11-20T12:57:49;24.60;;;12.93;;
3193;SDS011;1608;50.860;13.466;2022-11-20T13:00:20;22.60;;;12.60;;
3193;SDS011;1608;50.860;13.466;2022-11-20T13:02:56;27.90;;;13.07;;
3193;SDS011;1608;50.860;13.466;2022-11-20T13:05:35;18.90;;;11.40;;
3193;SDS011;1608;50.860;13.466;2022-11-20T13:08:18;22.60;;;12.83;;
3193;SDS011;1608;50.860;13.466;2022-11-20T13:10:49;26.20;;;13.10;;
3193;SDS011;1608;50.860;13.466;2022-11-20T13:13:22;25.57;;;12.50;;
3193;SDS011;1608;50.860;13.466;2022-11-20T13:15:55;29.07;;;14.37;;
3193;SDS011;1608;50.860;13.466;2022-11-20T13:18:28;22.63;;;11.57;;
3193;SDS011;1608;50.860;13.466;2022-11-20T13:21:00;27.73;;;13.93;;
3193;SDS011;1608;50.860;13.466;2022-11-20T13:23:28;23.33;;;12.67;;
3193;SDS011;1608;50.860;13.466;2022-11-20T13:26:05;27.97;;;14.10;;
3193;SDS011;1608;50.860;13.466;2022-11-20T13:28:39;29.93;;;14.53;;
3193;SDS011;1608;50.860;13.466;2022-11-20T13:31:09;28.83;;;14.30;;
3193;SDS011;1608;50.860;13.466;2022-11-20T13:33:54;29.10;;;12.70;;
3193;SDS011;1608;50.860;13.466;2022-11-20T13:36:24;35.07;;;13.87;;
3193;SDS011;1608;50.860;13.466;2022-11-20T13:38:54;29.77;;;12.40;;
3193;SDS011;1608;50.860;13.466;2022-11-20T13:41:23;26.60;;;14.00;;
3193;SDS011;1608;50.860;13.466;2022-11-20T13:43:57;29.13;;;14.03;;
3193;SDS011;1608;50.860;13.466;2022-11-20T13:46:34;24.40;;;12.97;;
3193;SDS011;1608;50.860;13.466;2022-11-20T13:49:07;31.27;;;19.53;;
3193;SDS011;1608;50.860;13.466;2022-11-20T13:51:37;30.80;;;16.73;;
3193;SDS011;1608;50.860;13.466;2022-11-20T14:00:18;29.57;;;13.90;;
3193;SDS011;1608;50.860;13.466;2022-11-20T14:02:50;27.10;;;13.67;;
3193;SDS011;1608;50.860;13.466;2022-11-20T14:05:27;21.13;;;12.90;;
3193;SDS011;1608;50.860;13.466;2022-11-20T14:07:57;29.33;;;11.87;;
3193;SDS011;1608;50.860;13.466;2022-11-20T14:10:26;24.43;;;12.53;;
3193;SDS011;1608;50.860;13.466;2022-11-20T14:12:54;27.77;;;13.10;;
3193;SDS011;1608;50.860;13.466;2022-11-20T14:15:26;31.83;;;13.70;;
3193;SDS011;1608;50.860;13.466;2022-11-20T14:17:55;23.13;;;13.40;;
3193;SDS011;1608;50.860;13.466;2022-11-20T14:20:23;22.90;;;13.63;;
3193;SDS011;1608;50.860;13.466;2022-11-20T14:22:53;19.83;;;12.20;;
3193;SDS011;1608;50.860;13.466;2022-11-20T14:25:21;22.37;;;10.40;;
3193;SDS011;1608;50.860;13.466;2022-11-20T14:27:52;18.90;;;13.90;;
3193;SDS011;1608;50.860;13.466;2022-11-20T14:30:21;17.27;;;9.77;;
3193;SDS011;1608;50.860;13.466;2022-11-20T14:32:51;21.37;;;11.67;;
3193;SDS011;1608;50.860;13.466;2022-11-20T14:35:21;18.30;;;9.50;;
3193;SDS011;1608;50.860;13.466;2022-11-20T14:37:51;18.13;;;8.70;;
3193;SDS011;1608;50.860;13.466;2022-11-20T14:40:23;16.43;;;9.33;;
3193;SDS011;1608;50.860;13.466;2022-11-20T14:42:52;16.07;;;8.07;;
3193;SDS011;1608;50.860;13.466;2022-11-20T14:45:19;22.17;;;10.37;;
3193;SDS011;1608;50.860;13.466;2022-11-20T14:47:47;17.93;;;10.00;;
3193;SDS011;1608;50.860;13.466;2022-11-20T14:50:17;18.67;;;9.90;;
3193;SDS011;1608;50.860;13.466;2022-11-20T14:52:50;15.27;;;8.00;;
3193;SDS011;1608;50.860;13.466;2022-11-20T14:55:27;16.17;;;8.93;;
3193;SDS011;1608;50.860;13.466;2022-11-20T14:57:56;18.53;;;10.50;;
3193;SDS011;1608;50.860;13.466;2022-11-20T15:00:25;13.50;;;6.80;;
3193;SDS011;1608;50.860;13.466;2022-11-20T15:02:52;15.43;;;7.87;;
3193;SDS011;1608;50.860;13.466;2022-11-20T15:05:21;18.00;;;9.30;;
3193;SDS011;1608;50.860;13.466;2022-11-20T15:07:50;15.90;;;9.33;;
3193;SDS011;1608;50.860;13.466;2022-11-20T15:10:29;18.10;;;9.07;;
3193;SDS011;1608;50.860;13.466;2022-11-20T15:13:00;17.17;;;8.93;;
3193;SDS011;1608;50.860;13.466;2022-11-20T15:15:29;22.17;;;11.87;;